Time;durP1;ratioP1;P1;durP2;ratioP2;P2;SDS_P1;SDS_P2;PMS_P1;PMS_P2;Temp;Humidity;BMP_temperature;BMP_pressure;BME280_temperature;BME280_humidity;BME280_pressure;Samples;Min_cycle;Max_cycle;Signal;HPM_P1;HPM_P2
2021/12/06 00:00:42;;;;;;;29.17;13.25;;;2.40;99.90;;;;;;5052630;28;20045;-76
2021/12/06 00:03:11;;;;;;;16.05;8.15;;;2.50;99.90;;;;;;5056681;28;20127;-76
2021/12/06 00:05:37;;;;;;;21.40;12.57;;;2.40;99.90;;;;;;5043526;28;20126;-76
2021/12/06 00:08:04;;;;;;;17.88;10.70;;;2.40;99.90;;;;;;5081556;28;20053;-76
2021/12/06 00:10:30;;;;;;;20.92;11.70;;;2.40;99.90;;;;;;5059431;28;20052;-77
2021/12/06 00:12:56;;;;;;;19.70;11.38;;;2.40;99.90;;;;;;5067343;28;20093;-76
2021/12/06 00:15:22;;;;;;;22.80;10.63;;;2.50;99.90;;;;;;5042371;28;20037;-75
2021/12/06 00:17:48;;;;;;;15.60;9.82;;;2.40;99.90;;;;;;5065587;28;20463;-77
2021/12/06 00:20:16;;;;;;;14.38;8.55;;;2.50;99.90;;;;;;5057978;28;20044;-76
2021/12/06 00:22:42;;;;;;;17.17;9.45;;;2.40;99.90;;;;;;5049699;28;20051;-75
2021/12/06 00:25:09;;;;;;;20.13;11.45;;;2.40;99.90;;;;;;5048042;28;20102;-76
2021/12/06 00:27:38;;;;;;;16.77;9.52;;;2.40;99.90;;;;;;5067303;28;20048;-76
2021/12/06 00:30:06;;;;;;;17.98;9.65;;;2.50;99.90;;;;;;5081604;28;20045;-76
2021/12/06 00:32:32;;;;;;;22.08;12.65;;;2.50;99.90;;;;;;5068706;28;20400;-76
2021/12/06 00:34:58;;;;;;;25.55;13.38;;;2.40;99.90;;;;;;5066147;28;20040;-76
2021/12/06 00:37:30;;;;;;;18.60;9.20;;;2.50;99.90;;;;;;5068595;28;20110;-76
2021/12/06 00:39:59;;;;;;;13.35;7.82;;;2.40;99.90;;;;;;5051603;28;20100;-76
2021/12/06 00:42:33;;;;;;;17.40;10.50;;;2.40;99.90;;;;;;5039450;28;20079;-76
2021/12/06 00:44:59;;;;;;;18.30;9.90;;;2.40;99.90;;;;;;5050149;28;20041;-76
2021/12/06 00:47:25;;;;;;;17.98;9.23;;;2.40;99.90;;;;;;5057373;28;20044;-76
2021/12/06 00:49:51;;;;;;;28.20;11.32;;;2.40;99.90;;;;;;5059382;28;20048;-76
2021/12/06 00:52:18;;;;;;;17.38;9.38;;;2.40;99.90;;;;;;5052340;28;20470;-76
2021/12/06 00:54:44;;;;;;;22.83;11.13;;;2.40;99.90;;;;;;5068626;28;20040;-76
2021/12/06 00:57:12;;;;;;;16.20;9.43;;;2.40;99.90;;;;;;5049629;28;20131;-76
2021/12/06 00:59:39;;;;;;;13.02;7.95;;;2.40;99.90;;;;;;5046661;28;20049;-76
2021/12/06 01:02:06;;;;;;;10.18;7.25;;;2.40;99.90;;;;;;5060410;28;20459;-76
2021/12/06 01:04:36;;;;;;;11.32;8.00;;;2.40;99.90;;;;;;5064335;28;20044;-76
2021/12/06 01:07:02;;;;;;;20.15;11.25;;;2.40;99.90;;;;;;5066166;28;20049;-76
2021/12/06 01:09:28;;;;;;;12.98;7.25;;;2.40;99.90;;;;;;5039454;28;20045;-76
2021/12/06 01:11:54;;;;;;;20.52;10.13;;;2.40;99.90;;;;;;5068944;28;20098;-76
2021/12/06 01:14:20;;;;;;;17.42;10.73;;;2.40;99.90;;;;;;5046707;28;20048;-76
2021/12/06 01:16:46;;;;;;;24.65;13.73;;;2.40;99.90;;;;;;5062462;28;20045;-76
2021/12/06 01:19:12;;;;;;;19.23;10.65;;;2.40;99.90;;;;;;5084767;28;20114;-76
2021/12/06 01:21:51;;;;;;;16.90;10.55;;;2.40;99.90;;;;;;5063581;28;20174;-76
2021/12/06 01:24:24;;;;;;;20.85;12.65;;;2.40;99.90;;;;;;5069940;28;20446;-76
2021/12/06 01:32:04;;;;;;;6.43;4.65;;;2.30;99.90;;;;;;5060804;28;20080;-76
2021/12/06 01:39:59;;;;;;;9.23;6.50;;;2.40;99.90;;;;;;5059383;28;20048;-76
2021/12/06 01:42:25;;;;;;;11.35;6.88;;;2.30;99.90;;;;;;5038899;28;20139;-76
2021/12/06 01:44:55;;;;;;;23.42;11.98;;;2.30;99.90;;;;;;5079644;28;20061;-76
2021/12/06 01:47:30;;;;;;;13.73;9.52;;;2.40;99.90;;;;;;5071548;28;20045;-76
2021/12/06 01:50:06;;;;;;;18.17;10.02;;;2.40;99.90;;;;;;5070057;28;20123;-76
2021/12/06 01:52:36;;;;;;;22.00;11.13;;;2.40;99.90;;;;;;5044341;28;20509;-76
2021/12/06 01:55:08;;;;;;;25.40;10.55;;;2.40;99.90;;;;;;5066396;28;20094;-76
2021/12/06 01:57:35;;;;;;;10.27;7.47;;;2.40;99.90;;;;;;5038755;28;20386;-76
2021/12/06 02:00:04;;;;;;;28.50;15.23;;;2.40;99.90;;;;;;5069754;28;20424;-76
2021/12/06 02:02:30;;;;;;;16.10;9.65;;;2.40;99.90;;;;;;5065719;28;20080;-76
2021/12/06 02:04:56;;;;;;;16.10;9.85;;;2.40;99.90;;;;;;5077193;28;20041;-76
2021/12/06 02:07:26;;;;;;;5.10;2.97;;;2.40;99.90;;;;;;5046175;28;20099;-76
2021/12/06 02:09:54;;;;;;;24.67;11.25;;;2.40;99.90;;;;;;5068819;28;20044;-76
2021/12/06 02:12:20;;;;;;;27.05;11.85;;;2.40;99.90;;;;;;5060939;28;20436;-76
2021/12/06 02:17:34;;;;;;;15.35;8.02;;;2.40;99.90;;;;;;5064826;28;20139;-76
2021/12/06 02:20:26;;;;;;;18.00;10.13;;;2.40;99.90;;;;;;5057098;28;20468;-76
2021/12/06 02:22:54;;;;;;;6.18;4.75;;;2.40;99.90;;;;;;5053015;28;20037;-76
2021/12/06 02:25:20;;;;;;;23.85;11.20;;;2.40;99.90;;;;;;5064980;28;20029;-76
2021/12/06 02:27:48;;;;;;;21.10;7.50;;;2.40;99.90;;;;;;5052675;28;20045;-76
2021/12/06 02:30:17;;;;;;;22.40;11.15;;;2.40;99.90;;;;;;5057866;28;20036;-76
2021/12/06 02:32:45;;;;;;;6.57;5.40;;;2.40;99.90;;;;;;5043757;28;20047;-76
2021/12/06 02:35:18;;;;;;;14.90;8.63;;;2.40;99.90;;;;;;5054986;28;20036;-76
2021/12/06 02:37:45;;;;;;;18.98;10.60;;;2.40;99.90;;;;;;5047432;28;20109;-76
2021/12/06 02:40:17;;;;;;;9.70;7.22;;;2.30;99.90;;;;;;5062832;28;20037;-76
2021/12/06 02:42:46;;;;;;;26.33;9.52;;;2.30;99.90;;;;;;5038745;28;20040;-75
2021/12/06 02:45:14;;;;;;;7.90;4.28;;;2.30;99.90;;;;;;5034263;28;20062;-76
2021/12/06 02:47:41;;;;;;;14.05;6.40;;;2.30;99.90;;;;;;5035479;28;20068;-75
2021/12/06 02:50:09;;;;;;;11.32;6.88;;;2.30;99.90;;;;;;5070765;28;20083;-76
2021/12/06 02:52:37;;;;;;;22.15;9.98;;;2.40;99.90;;;;;;5070984;28;20043;-76
2021/12/06 02:55:12;;;;;;;4.10;3.35;;;2.30;99.90;;;;;;5052524;28;20050;-76
2021/12/06 02:57:45;;;;;;;3.63;2.33;;;2.30;99.90;;;;;;5035692;28;20127;-75
2021/12/06 03:00:11;;;;;;;14.32;6.63;;;2.40;99.90;;;;;;5057651;28;20128;-76
2021/12/06 03:02:37;;;;;;;11.85;8.27;;;2.40;99.90;;;;;;5041620;28;20116;-76
2021/12/06 03:05:03;;;;;;;6.93;5.88;;;2.30;99.90;;;;;;5070594;28;20135;-76
2021/12/06 03:07:31;;;;;;;26.02;11.90;;;2.40;99.90;;;;;;5070473;28;20448;-76
2021/12/06 03:09:57;;;;;;;13.98;8.98;;;2.40;99.90;;;;;;5070567;28;20052;-75
2021/12/06 03:12:27;;;;;;;16.13;7.13;;;2.40;99.90;;;;;;5067625;28;20052;-76
2021/12/06 03:14:56;;;;;;;15.23;7.65;;;2.40;99.90;;;;;;5059165;28;20051;-76
2021/12/06 03:17:24;;;;;;;16.70;9.13;;;2.40;99.90;;;;;;5070178;28;20041;-75
2021/12/06 03:19:50;;;;;;;15.80;9.13;;;2.40;99.90;;;;;;5059929;28;20047;-76
2021/12/06 03:22:17;;;;;;;19.15;11.52;;;2.40;99.90;;;;;;5064042;28;20051;-76
2021/12/06 03:24:44;;;;;;;16.08;8.00;;;2.40;99.90;;;;;;5068909;28;20518;-76
2021/12/06 03:27:10;;;;;;;18.77;9.70;;;2.40;99.90;;;;;;5047104;28;20045;-76
2021/12/06 03:29:37;;;;;;;5.55;3.42;;;2.40;99.90;;;;;;5068755;28;20489;-76
2021/12/06 03:32:03;;;;;;;8.15;5.45;;;2.40;99.90;;;;;;5078722;28;20048;-76
2021/12/06 03:34:29;;;;;;;5.70;3.78;;;2.40;99.90;;;;;;5070364;28;20090;-75
2021/12/06 03:36:57;;;;;;;19.80;9.63;;;2.40;99.90;;;;;;5069475;28;20050;-75
2021/12/06 03:39:31;;;;;;;12.73;8.07;;;2.40;99.90;;;;;;5045557;28;20102;-76
2021/12/06 03:42:00;;;;;;;16.30;8.70;;;2.40;99.90;;;;;;5046995;28;20061;-76
2021/12/06 03:44:28;;;;;;;9.02;5.80;;;2.40;99.90;;;;;;5044020;28;20162;-76
2021/12/06 03:47:02;;;;;;;12.68;6.20;;;2.40;99.90;;;;;;5063084;28;20040;-77
2021/12/06 03:49:29;;;;;;;24.33;6.80;;;2.40;99.90;;;;;;5055637;28;20045;-76
2021/12/06 03:51:55;;;;;;;3.92;3.47;;;2.40;99.90;;;;;;5066504;28;20127;-76
2021/12/06 03:54:26;;;;;;;20.00;7.30;;;2.40;99.90;;;;;;5086442;28;20044;-76
2021/12/06 03:56:53;;;;;;;2.05;1.95;;;2.40;99.90;;;;;;5057416;28;20080;-76
2021/12/06 03:59:19;;;;;;;17.65;9.05;;;2.40;99.90;;;;;;5038519;28;20451;-76
2021/12/06 04:01:46;;;;;;;18.02;10.25;;;2.40;99.90;;;;;;5069434;28;20040;-76
2021/12/06 04:04:13;;;;;;;12.70;6.93;;;2.50;99.90;;;;;;5050842;28;20055;-76
2021/12/06 04:06:40;;;;;;;7.50;3.45;;;2.50;99.90;;;;;;5069101;28;20436;-76
2021/12/06 04:09:07;;;;;;;2.25;2.05;;;2.50;99.90;;;;;;5069559;28;20131;-76
2021/12/06 04:11:34;;;;;;;8.32;5.60;;;2.50;99.90;;;;;;5059303;28;20044;-76
2021/12/06 04:14:00;;;;;;;7.53;4.80;;;2.40;99.90;;;;;;5078971;28;20045;-76
2021/12/06 04:16:26;;;;;;;6.70;3.92;;;2.50;99.90;;;;;;5068662;28;20056;-76
2021/12/06 04:18:52;;;;;;;4.32;3.80;;;2.50;99.90;;;;;;5068925;28;20060;-76
2021/12/06 04:21:19;;;;;;;2.65;1.88;;;2.40;99.90;;;;;;5048193;28;20044;-76
2021/12/06 04:23:45;;;;;;;7.00;4.88;;;2.50;99.90;;;;;;5041107;28;20044;-76
2021/12/06 04:26:11;;;;;;;12.90;7.20;;;2.40;99.90;;;;;;5058843;28;20041;-76
2021/12/06 04:28:43;;;;;;;15.38;9.20;;;2.50;99.90;;;;;;5045980;28;20117;-76
2021/12/06 04:31:08;;;;;;;2.65;2.00;;;2.50;99.90;;;;;;5048449;28;20504;-76
2021/12/06 04:33:34;;;;;;;8.57;6.47;;;2.50;99.90;;;;;;5069103;28;20048;-76
2021/12/06 04:36:01;;;;;;;2.08;1.63;;;2.50;99.90;;;;;;5039046;28;20191;-76
2021/12/06 04:38:27;;;;;;;9.70;4.32;;;2.50;99.90;;;;;;5066559;28;20045;-76
2021/12/06 04:40:53;;;;;;;25.30;9.82;;;2.50;99.90;;;;;;5046278;28;20040;-76
2021/12/06 04:43:19;;;;;;;15.15;8.27;;;2.50;99.90;;;;;;5063526;28;20044;-76
2021/12/06 04:45:45;;;;;;;15.95;8.95;;;2.50;99.90;;;;;;5068862;28;20400;-76
2021/12/06 04:48:11;;;;;;;12.75;7.25;;;2.50;99.90;;;;;;5067616;28;20040;-76
2021/12/06 04:50:38;;;;;;;6.68;3.92;;;2.50;99.90;;;;;;5056171;28;20041;-76
2021/12/06 04:53:12;;;;;;;13.10;7.30;;;2.50;99.90;;;;;;5052036;28;20047;-76
2021/12/06 04:56:07;;;;;;;12.95;9.05;;;2.50;99.90;;;;;;5068558;28;20044;-76
2021/12/06 04:58:40;;;;;;;12.98;8.40;;;2.50;99.90;;;;;;5063074;28;20171;-76
2021/12/06 05:01:10;;;;;;;12.50;4.40;;;2.50;99.90;;;;;;5064162;28;20409;-76
2021/12/06 05:03:38;;;;;;;16.73;10.18;;;2.50;99.90;;;;;;5072494;28;20044;-76
2021/12/06 05:06:10;;;;;;;10.75;5.43;;;2.50;99.90;;;;;;5065274;28;20112;-76
2021/12/06 05:08:41;;;;;;;21.55;10.27;;;2.50;99.90;;;;;;5068294;28;20048;-76
2021/12/06 05:11:08;;;;;;;12.05;6.72;;;2.50;99.90;;;;;;5056165;28;20091;-76
2021/12/06 05:13:37;;;;;;;17.48;7.57;;;2.50;99.90;;;;;;5056246;28;20102;-76
2021/12/06 05:16:03;;;;;;;9.15;5.43;;;2.50;99.90;;;;;;5052609;28;20119;-76
2021/12/06 05:18:29;;;;;;;15.60;7.85;;;2.50;99.90;;;;;;5036111;28;20527;-76
2021/12/06 05:20:55;;;;;;;1.52;1.42;;;2.50;99.90;;;;;;5044769;28;20041;-76
2021/12/06 05:23:21;;;;;;;5.68;3.38;;;2.50;99.90;;;;;;5046394;28;20044;-76
2021/12/06 05:25:47;;;;;;;14.65;7.75;;;2.50;99.90;;;;;;5062878;28;20086;-76
2021/12/06 05:28:13;;;;;;;19.27;8.98;;;2.50;99.90;;;;;;5072445;28;20123;-76
2021/12/06 05:30:42;;;;;;;16.52;7.70;;;2.60;99.90;;;;;;5067763;28;20586;-76
2021/12/06 05:33:10;;;;;;;17.77;6.68;;;2.50;99.90;;;;;;5068705;28;20065;-76
2021/12/06 05:35:35;;;;;;;8.18;4.30;;;2.50;99.90;;;;;;5069965;28;20052;-76
2021/12/06 05:38:02;;;;;;;7.18;4.00;;;2.50;99.90;;;;;;5048494;28;20056;-77
2021/12/06 05:40:33;;;;;;;13.27;8.02;;;2.50;99.90;;;;;;5053232;28;20045;-76
2021/12/06 05:43:01;;;;;;;21.50;11.55;;;2.50;99.90;;;;;;5064076;28;20048;-76
2021/12/06 05:45:29;;;;;;;22.55;12.00;;;2.60;99.90;;;;;;5088922;28;20389;-76
2021/12/06 05:47:56;;;;;;;17.73;9.45;;;2.60;99.90;;;;;;5045610;28;20501;-76
2021/12/06 05:50:23;;;;;;;2.70;2.45;;;2.60;99.90;;;;;;5054434;28;20120;-76
2021/12/06 05:52:52;;;;;;;26.40;12.60;;;2.60;99.90;;;;;;5055655;28;20095;-76
2021/12/06 05:55:19;;;;;;;23.98;10.25;;;2.60;99.90;;;;;;5067423;28;20032;-76
2021/12/06 05:57:46;;;;;;;20.88;8.48;;;2.60;99.90;;;;;;5035547;28;20044;-76
2021/12/06 06:00:14;;;;;;;9.48;6.55;;;2.60;99.90;;;;;;5041999;28;20102;-76
2021/12/06 06:02:41;;;;;;;15.77;8.80;;;2.60;99.90;;;;;;5045250;28;20049;-76
2021/12/06 06:05:08;;;;;;;19.45;9.60;;;2.60;99.90;;;;;;5070424;28;20044;-76
2021/12/06 06:07:34;;;;;;;8.70;5.93;;;2.50;99.90;;;;;;5066102;28;20519;-76
2021/12/06 06:10:00;;;;;;;14.80;6.35;;;2.60;99.90;;;;;;5072233;28;20045;-76
2021/12/06 06:12:26;;;;;;;15.73;6.63;;;2.50;99.90;;;;;;5071770;28;20527;-76
2021/12/06 06:14:53;;;;;;;11.82;7.63;;;2.50;99.90;;;;;;5047780;28;20041;-76
2021/12/06 06:17:20;;;;;;;4.15;2.35;;;2.60;99.90;;;;;;5039969;28;20128;-76
2021/12/06 06:19:53;;;;;;;11.25;6.15;;;2.50;99.90;;;;;;5059125;28;20538;-76
2021/12/06 06:22:18;;;;;;;;;;;2.60;99.90;;;;;;5064796;28;20287;-76
2021/12/06 06:24:44;;;;;;;20.17;9.07;;;2.60;99.90;;;;;;5050311;28;19924;-76
2021/12/06 06:27:10;;;;;;;15.00;8.23;;;2.60;99.90;;;;;;5049776;28;20410;-76
2021/12/06 06:29:36;;;;;;;30.67;11.23;;;2.60;99.90;;;;;;5060425;28;20045;-76
2021/12/06 06:32:03;;;;;;;19.50;10.25;;;2.60;99.90;;;;;;5065212;28;20501;-76
2021/12/06 06:34:29;;;;;;;9.30;5.47;;;2.60;99.90;;;;;;5063470;28;20052;-76
2021/12/06 06:36:55;;;;;;;14.32;4.75;;;2.60;99.90;;;;;;5031855;28;20041;-76
2021/12/06 06:39:22;;;;;;;8.73;6.05;;;2.60;99.90;;;;;;5070475;28;20044;-76
2021/12/06 06:41:50;;;;;;;6.07;3.72;;;2.60;99.90;;;;;;5050908;28;20048;-76
2021/12/06 06:44:17;;;;;;;6.35;4.45;;;2.60;99.90;;;;;;5058580;28;20048;-76
2021/12/06 06:46:44;;;;;;;25.77;13.13;;;2.60;99.90;;;;;;5054866;28;20454;-76
2021/12/06 06:49:10;;;;;;;11.18;6.07;;;2.60;99.90;;;;;;5054302;28;20143;-76
2021/12/06 06:51:37;;;;;;;20.13;10.00;;;2.60;99.90;;;;;;5070691;28;20048;-76
2021/12/06 06:54:03;;;;;;;17.90;8.65;;;2.60;99.90;;;;;;5059034;28;20183;-77
2021/12/06 06:56:29;;;;;;;22.52;9.00;;;2.60;99.90;;;;;;5057414;28;20401;-76
2021/12/06 06:58:55;;;;;;;15.38;7.35;;;2.60;99.90;;;;;;5043242;28;20044;-77
2021/12/06 07:01:21;;;;;;;33.00;11.88;;;2.60;99.90;;;;;;5043084;28;20033;-77
2021/12/06 07:03:50;;;;;;;19.25;9.40;;;2.60;99.90;;;;;;5045018;28;20512;-77
2021/12/06 07:06:16;;;;;;;19.52;10.32;;;2.60;99.90;;;;;;5039109;28;20045;-76
2021/12/06 07:08:43;;;;;;;25.27;10.35;;;2.60;99.90;;;;;;5036372;28;20055;-76
2021/12/06 07:11:09;;;;;;;18.33;6.78;;;2.50;99.90;;;;;;5030808;28;20172;-76
2021/12/06 07:13:38;;;;;;;10.48;6.13;;;2.50;99.90;;;;;;5036959;28;20045;-76
2021/12/06 07:16:06;;;;;;;16.17;7.78;;;2.60;99.90;;;;;;5055442;28;20052;-76
2021/12/06 07:18:33;;;;;;;26.65;12.05;;;2.50;99.90;;;;;;5087319;28;20436;-77
2021/12/06 07:20:59;;;;;;;23.23;8.23;;;2.50;99.90;;;;;;5053903;28;20036;-76
2021/12/06 07:23:24;;;;;;;9.23;5.35;;;2.50;99.90;;;;;;5061757;28;20037;-76
2021/12/06 07:25:50;;;;;;;22.65;9.52;;;2.50;99.90;;;;;;5051377;28;20039;-76
2021/12/06 07:28:16;;;;;;;19.10;9.10;;;2.50;99.90;;;;;;5034146;28;20037;-76
2021/12/06 07:30:42;;;;;;;8.05;4.70;;;2.50;99.90;;;;;;5037248;28;20046;-76
2021/12/06 07:33:08;;;;;;;12.43;7.10;;;2.50;99.90;;;;;;5057527;28;20500;-76
2021/12/06 07:35:34;;;;;;;16.20;6.43;;;2.50;99.90;;;;;;5084107;28;20048;-76
2021/12/06 07:38:03;;;;;;;11.25;7.22;;;2.50;99.90;;;;;;5066531;28;20277;-76
2021/12/06 07:40:31;;;;;;;7.30;5.80;;;2.50;99.90;;;;;;5057371;28;20580;-76
2021/12/06 07:42:57;;;;;;;8.75;6.50;;;2.60;99.90;;;;;;5027913;28;20489;-76
2021/12/06 07:45:23;;;;;;;17.65;8.43;;;2.60;99.90;;;;;;5034883;28;20036;-76
2021/12/06 07:47:49;;;;;;;27.13;10.52;;;2.60;99.90;;;;;;5036216;28;20496;-76
2021/12/06 07:50:18;;;;;;;17.23;8.90;;;2.60;99.90;;;;;;5062072;28;20095;-76
2021/12/06 07:52:45;;;;;;;13.82;7.15;;;2.60;99.90;;;;;;5055032;28;20041;-76
2021/12/06 07:55:14;;;;;;;32.95;6.90;;;2.70;99.90;;;;;;5060004;28;20059;-76
2021/12/06 07:57:40;;;;;;;16.00;7.50;;;2.60;99.90;;;;;;5061659;28;20045;-76
2021/12/06 08:00:10;;;;;;;16.23;8.45;;;2.60;99.90;;;;;;5056045;28;20084;-76
2021/12/06 08:02:36;;;;;;;12.50;5.55;;;2.60;99.90;;;;;;5022859;28;20524;-76
2021/12/06 08:05:49;;;;;;;9.73;5.28;;;2.60;99.90;;;;;;5055645;28;20044;-76
2021/12/06 08:07:49;;;;;;;13.40;6.68;;;2.60;99.90;;;;;;5043191;28;20123;-76
2021/12/06 08:10:15;;;;;;;16.23;6.72;;;2.60;99.90;;;;;;5039813;28;20099;-76
2021/12/06 08:12:41;;;;;;;9.80;6.18;;;2.60;99.90;;;;;;5051889;28;20047;-76
2021/12/06 08:15:08;;;;;;;12.60;6.97;;;2.70;99.90;;;;;;5065066;28;20393;-76
2021/12/06 08:17:34;;;;;;;21.23;8.63;;;2.70;99.90;;;;;;5068644;28;20060;-76
2021/12/06 08:19:59;;;;;;;3.65;3.00;;;2.70;99.90;;;;;;5038156;28;20049;-76
2021/12/06 08:22:25;;;;;;;22.83;9.60;;;2.70;99.90;;;;;;5053030;28;20072;-76
2021/12/06 08:24:51;;;;;;;4.13;3.75;;;2.70;99.90;;;;;;5035816;28;20195;-76
2021/12/06 08:27:16;;;;;;;13.07;6.10;;;2.70;99.90;;;;;;5044292;28;20033;-76
2021/12/06 08:29:43;;;;;;;25.17;8.40;;;2.70;99.90;;;;;;5037053;28;20485;-78
2021/12/06 08:32:10;;;;;;;10.98;6.30;;;2.80;99.90;;;;;;5035045;28;20124;-77
2021/12/06 08:34:41;;;;;;;18.73;7.93;;;2.80;99.90;;;;;;5030623;28;20041;-77
2021/12/06 08:37:08;;;;;;;18.90;8.32;;;2.80;99.90;;;;;;5039046;28;20041;-77
2021/12/06 08:39:34;;;;;;;26.50;11.77;;;2.80;99.90;;;;;;5039106;28;20146;-77
2021/12/06 08:41:59;;;;;;;21.95;9.60;;;2.80;99.90;;;;;;5052186;28;20053;-77
2021/12/06 08:44:25;;;;;;;17.83;8.65;;;2.90;99.90;;;;;;5048990;28;20129;-76
2021/12/06 08:46:51;;;;;;;7.88;4.68;;;2.90;99.90;;;;;;5027496;28;20488;-77
2021/12/06 08:49:17;;;;;;;39.33;14.65;;;2.90;99.90;;;;;;5058470;28;20400;-77
2021/12/06 08:51:46;;;;;;;30.88;13.15;;;2.90;99.90;;;;;;5075580;28;20051;-77
2021/12/06 08:54:14;;;;;;;19.98;9.15;;;2.90;99.90;;;;;;5074726;28;20040;-77
2021/12/06 08:56:40;;;;;;;15.23;7.63;;;2.90;99.90;;;;;;5033666;28;20103;-77
2021/12/06 08:59:07;;;;;;;17.52;8.65;;;2.90;99.90;;;;;;5048051;28;20045;-77
2021/12/06 09:01:35;;;;;;;10.75;4.82;;;3.00;99.90;;;;;;5048209;28;20037;-77
2021/12/06 09:04:02;;;;;;;17.38;6.22;;;3.00;99.90;;;;;;5044047;28;20483;-76
2021/12/06 09:06:28;;;;;;;26.60;11.23;;;3.00;99.90;;;;;;5018791;28;20401;-77
2021/12/06 09:08:55;;;;;;;15.27;5.75;;;3.00;99.90;;;;;;5045927;28;20041;-77
2021/12/06 09:11:21;;;;;;;16.52;8.25;;;3.00;99.90;;;;;;5041115;28;20042;-77
2021/12/06 09:13:47;;;;;;;18.40;7.95;;;3.10;99.90;;;;;;5050874;28;20044;-77
2021/12/06 09:16:14;;;;;;;21.42;8.65;;;3.00;99.90;;;;;;5051875;28;20116;-77
2021/12/06 09:18:42;;;;;;;23.08;10.55;;;3.10;99.90;;;;;;5061712;28;20224;-77
2021/12/06 09:21:20;;;;;;;12.65;7.43;;;3.10;99.90;;;;;;5029739;28;20464;-76
2021/12/06 09:23:46;;;;;;;21.05;9.50;;;3.10;99.90;;;;;;5047497;28;20052;-77
2021/12/06 09:26:13;;;;;;;15.35;7.30;;;3.10;99.90;;;;;;5046951;28;20327;-77
2021/12/06 09:28:38;;;;;;;17.30;8.55;;;3.10;99.90;;;;;;5045487;28;20041;-77
2021/12/06 09:31:05;;;;;;;22.88;9.15;;;3.00;99.90;;;;;;5044751;28;20045;-78
2021/12/06 09:33:33;;;;;;;10.20;4.43;;;3.10;99.90;;;;;;5045016;28;20045;-78
2021/12/06 09:36:00;;;;;;;15.65;6.93;;;3.10;99.90;;;;;;5029548;28;20041;-78
2021/12/06 09:38:33;;;;;;;14.25;6.53;;;3.10;99.90;;;;;;5034036;28;20123;-77
2021/12/06 09:41:01;;;;;;;16.10;8.05;;;3.10;99.90;;;;;;5040991;28;20033;-78
2021/12/06 09:43:28;;;;;;;23.67;9.27;;;3.10;99.90;;;;;;5058385;28;20044;-77
2021/12/06 09:45:54;;;;;;;22.13;9.38;;;3.10;99.90;;;;;;5054854;28;20492;-77
2021/12/06 09:48:21;;;;;;;16.00;6.90;;;3.10;99.90;;;;;;5057805;28;20037;-77
2021/12/06 09:50:55;;;;;;;13.05;7.95;;;3.10;99.90;;;;;;5055617;28;20052;-77
2021/12/06 09:53:24;;;;;;;14.48;8.25;;;3.00;99.90;;;;;;5072175;28;20401;-77
2021/12/06 09:55:53;;;;;;;17.08;8.65;;;3.00;99.90;;;;;;5049574;28;20095;-77
2021/12/06 09:58:19;;;;;;;21.85;10.10;;;3.00;99.90;;;;;;5076546;28;20052;-77
2021/12/06 10:00:52;;;;;;;22.45;9.20;;;3.00;99.90;;;;;;5065624;28;20071;-77
2021/12/06 10:03:23;;;;;;;19.83;8.85;;;3.00;99.90;;;;;;5055432;28;20041;-77
2021/12/06 10:05:49;;;;;;;25.55;10.95;;;3.00;99.90;;;;;;5052408;28;20105;-78
2021/12/06 10:08:16;;;;;;;10.75;6.43;;;3.00;99.90;;;;;;5071391;28;20516;-78
2021/12/06 10:10:42;;;;;;;12.23;6.70;;;3.00;99.90;;;;;;5058315;28;20522;-77
2021/12/06 10:13:09;;;;;;;10.15;5.63;;;3.00;99.90;;;;;;5055182;28;20095;-77
2021/12/06 10:15:36;;;;;;;11.73;5.82;;;3.00;99.90;;;;;;5057582;28;20149;-78
2021/12/06 10:18:03;;;;;;;1999.90;999.90;;;3.00;99.90;;;;;;5071196;28;20037;-77
2021/12/06 10:20:30;;;;;;;1999.90;999.90;;;3.00;99.90;;;;;;5064190;28;20128;-78
2021/12/06 10:22:57;;;;;;;1999.90;999.90;;;3.00;99.90;;;;;;5060007;28;20048;-78
2021/12/06 10:25:35;;;;;;;1999.90;999.90;;;2.90;99.90;;;;;;5061321;28;20493;-78
2021/12/06 10:28:04;;;;;;;1999.90;999.90;;;2.90;99.90;;;;;;5038108;28;20099;-78
2021/12/06 10:30:30;;;;;;;1999.90;999.90;;;2.90;99.90;;;;;;5036180;28;20108;-78
2021/12/06 10:33:24;;;;;;;1999.90;999.90;;;2.90;99.90;;;;;;5032054;28;20040;-79
2021/12/06 10:35:55;;;;;;;1999.90;999.90;;;2.80;99.90;;;;;;5066481;28;20068;-78
2021/12/06 10:38:28;;;;;;;1999.90;999.90;;;2.80;99.90;;;;;;5057994;28;20075;-79
2021/12/06 10:41:04;;;;;;;1999.90;999.90;;;2.80;99.90;;;;;;5070482;28;20170;-79
2021/12/06 10:43:31;;;;;;;1999.90;999.90;;;2.80;99.90;;;;;;5041273;28;20057;-79
2021/12/06 10:45:58;;;;;;;1999.90;999.90;;;2.80;99.90;;;;;;5066781;28;20397;-79
2021/12/06 10:48:27;;;;;;;1999.90;999.90;;;2.80;99.90;;;;;;5084415;28;20405;-78
2021/12/06 10:50:52;;;;;;;1999.90;999.90;;;2.80;99.90;;;;;;5068171;28;20052;-79
2021/12/06 10:54:02;;;;;;;1999.90;999.90;;;2.80;99.90;;;;;;5054380;28;20047;-79
2021/12/06 10:56:43;;;;;;;1999.90;999.90;;;2.80;99.90;;;;;;5039795;28;20037;-78
2021/12/06 10:59:16;;;;;;;1999.90;999.90;;;2.80;99.90;;;;;;5059095;28;20049;-79
2021/12/06 11:01:44;;;;;;;1999.90;999.90;;;2.80;99.90;;;;;;5071230;28;20400;-79
2021/12/06 11:04:11;;;;;;;1999.90;999.90;;;2.80;99.90;;;;;;5070945;28;20537;-79
2021/12/06 11:06:44;;;;;;;1999.90;999.90;;;2.80;99.90;;;;;;5046730;28;20139;-78
2021/12/06 11:09:20;;;;;;;1999.90;999.90;;;2.90;99.90;;;;;;5063258;28;20138;-79
2021/12/06 11:11:49;;;;;;;1999.90;999.90;;;2.90;99.90;;;;;;5048072;28;20052;-79
2021/12/06 11:14:22;;;;;;;1999.90;999.90;;;2.90;99.90;;;;;;5082206;28;20142;-78
2021/12/06 11:16:53;;;;;;;1999.90;999.90;;;2.90;99.90;;;;;;5067031;28;20514;-79
2021/12/06 11:19:21;;;;;;;1999.90;999.90;;;3.00;99.90;;;;;;5070499;28;20048;-79
2021/12/06 11:22:00;;;;;;;1999.90;999.90;;;3.00;99.90;;;;;;5049678;28;20087;-78
2021/12/06 11:24:29;;;;;;;1999.90;999.90;;;3.00;99.90;;;;;;5068408;28;20052;-79
2021/12/06 11:27:20;;;;;;;1999.90;999.90;;;3.00;99.90;;;;;;5047947;28;20041;-79
2021/12/06 11:29:55;;;;;;;1999.90;999.90;;;3.00;99.90;;;;;;5067165;28;20118;-79
2021/12/06 11:32:21;;;;;;;1999.90;999.90;;;3.10;99.90;;;;;;5041201;28;20131;-79
2021/12/06 11:34:59;;;;;;;1999.90;999.90;;;3.10;99.90;;;;;;5042832;28;20781;-79
2021/12/06 11:37:35;;;;;;;1999.90;999.90;;;3.20;99.90;;;;;;5070017;28;20479;-79
2021/12/06 11:40:07;;;;;;;1999.90;999.90;;;3.20;99.90;;;;;;5066232;28;20412;-79
2021/12/06 11:43:00;;;;;;;1999.90;999.90;;;3.20;99.90;;;;;;5053303;28;20121;-79
2021/12/06 11:45:55;;;;;;;1999.90;999.90;;;3.20;99.90;;;;;;5024032;28;20040;-79
2021/12/06 11:48:28;;;;;;;1999.90;999.90;;;3.20;99.90;;;;;;5063426;28;20049;-79
2021/12/06 11:51:05;;;;;;;1999.90;999.90;;;3.30;99.90;;;;;;5059376;28;20036;-78
2021/12/06 11:53:34;;;;;;;1999.90;999.90;;;3.40;99.90;;;;;;5060672;28;20045;-79
2021/12/06 11:56:10;;;;;;;1999.90;999.90;;;3.40;99.90;;;;;;5038037;28;20069;-79
2021/12/06 11:58:46;;;;;;;1999.90;999.90;;;3.40;99.90;;;;;;5093252;28;20133;-79
2021/12/06 12:01:23;;;;;;;1999.90;999.90;;;3.40;99.90;;;;;;5025481;28;20037;-77
2021/12/06 12:03:57;;;;;;;1999.90;999.90;;;3.30;99.90;;;;;;5063852;28;20116;-76
2021/12/06 12:06:23;;;;;;;1999.90;999.90;;;3.30;99.90;;;;;;5054420;28;20432;-76
2021/12/06 12:09:05;;;;;;;1999.90;999.90;;;3.20;99.90;;;;;;5046809;28;20086;-76
2021/12/06 12:11:31;;;;;;;1999.90;999.90;;;3.20;99.90;;;;;;5030185;28;20135;-77
2021/12/06 12:13:58;;;;;;;1999.90;999.90;;;3.20;99.90;;;;;;5065647;28;20044;-77
2021/12/06 12:16:24;;;;;;;1999.90;999.90;;;3.20;99.90;;;;;;5065602;28;20058;-76
2021/12/06 12:18:50;;;;;;;1999.90;999.90;;;3.20;99.90;;;;;;5049343;28;20045;-76
2021/12/06 12:21:17;;;;;;;1999.90;999.90;;;3.20;99.90;;;;;;5048554;28;20464;-76
2021/12/06 12:23:43;;;;;;;1999.90;999.90;;;3.30;99.90;;;;;;5059667;28;20428;-77
2021/12/06 12:26:17;;;;;;;1999.90;999.90;;;3.30;99.90;;;;;;5049496;28;20489;-76
2021/12/06 12:28:58;;;;;;;79.95;74.05;;;3.30;99.90;;;;;;5069125;28;20048;-76
2021/12/06 12:31:26;;;;;;;128.68;119.03;;;3.30;99.90;;;;;;5062961;28;20068;-76
2021/12/06 12:33:55;;;;;;;75.88;69.30;;;3.30;99.90;;;;;;5025175;28;20037;-76
2021/12/06 12:36:23;;;;;;;80.22;74.72;;;3.30;99.90;;;;;;5041276;28;20622;-77
2021/12/06 12:38:54;;;;;;;164.30;148.77;;;3.30;99.90;;;;;;5032597;28;20116;-76
2021/12/06 12:41:22;;;;;;;119.70;110.00;;;3.30;99.90;;;;;;5051310;28;20042;-76
2021/12/06 12:43:53;;;;;;;54.13;50.85;;;3.30;99.90;;;;;;5053951;28;20041;-76
2021/12/06 12:46:32;;;;;;;122.28;112.97;;;3.40;99.90;;;;;;5039454;28;20390;-76
2021/12/06 12:49:01;;;;;;;172.93;155.15;;;3.40;99.90;;;;;;5036297;28;20051;-76
2021/12/06 12:51:35;;;;;;;73.38;66.68;;;3.40;99.90;;;;;;5056757;28;20053;-76
2021/12/06 12:54:24;;;;;;;1999.90;999.90;;;3.40;99.90;;;;;;5074209;28;20446;-77
2021/12/06 12:56:55;;;;;;;1999.90;999.90;;;3.40;99.90;;;;;;5038324;28;20041;-79
2021/12/06 12:59:47;;;;;;;1999.90;999.90;;;3.40;99.90;;;;;;5059677;28;20095;-77